Los Angeles, California
Traffic Map
Current Weather Conditions
Los Angeles, California
Scattered Clouds
Scattered Clouds
26°
Feels Like: 26°
Wind Chill: 26° Ceiling: Unl
Heat Index: 26° Visibility: 10mi
Dew Point: 14° Wind: 3mph
Humidity: 48% Direction: ° ()
Pressure: 30.04in Gusts: 0mph
Raw Report DataKCQT 251847Z AUTO VRB03KT 10SM SCT095 26/14 A3004 RMK AO2 SLP170 T02560139
Traffic Incident Summary
Active as of:
Severity:
Category:
InformationThere was an issue retrieving the traffic information for this location. Please try a different location or try again shortly.
Advertisements
Track Severe Weather on mobile